sensor_id;sensor_type;location;lat;lon;timestamp;P1;durP1;ratioP1;P2;durP2;ratioP2
53299;SDS011;39187;48.476;8.310;2023-04-27T00:01:16;4.33;;;4.03;;
53299;SDS011;39187;48.476;8.310;2023-04-27T00:03:42;2.70;;;2.60;;
53299;SDS011;39187;48.476;8.310;2023-04-27T00:06:09;4.57;;;3.83;;
53299;SDS011;39187;48.476;8.310;2023-04-27T00:08:35;3.97;;;3.77;;
53299;SDS011;39187;48.476;8.310;2023-04-27T00:11:01;3.63;;;3.50;;
53299;SDS011;39187;48.476;8.310;2023-04-27T00:13:26;4.00;;;3.77;;
53299;SDS011;39187;48.476;8.310;2023-04-27T00:15:52;4.20;;;3.60;;
53299;SDS011;39187;48.476;8.310;2023-04-27T00:18:18;4.80;;;3.87;;
53299;SDS011;39187;48.476;8.310;2023-04-27T00:20:44;5.90;;;5.50;;
53299;SDS011;39187;48.476;8.310;2023-04-27T00:23:10;6.70;;;4.03;;
53299;SDS011;39187;48.476;8.310;2023-04-27T00:25:36;6.23;;;3.60;;
53299;SDS011;39187;48.476;8.310;2023-04-27T00:28:01;3.50;;;3.30;;
53299;SDS011;39187;48.476;8.310;2023-04-27T00:30:27;3.73;;;3.43;;
53299;SDS011;39187;48.476;8.310;2023-04-27T00:32:53;8.17;;;3.60;;
53299;SDS011;39187;48.476;8.310;2023-04-27T00:35:18;4.50;;;3.80;;
53299;SDS011;39187;48.476;8.310;2023-04-27T00:37:44;4.70;;;3.77;;
53299;SDS011;39187;48.476;8.310;2023-04-27T00:40:10;3.93;;;3.53;;
53299;SDS011;39187;48.476;8.310;2023-04-27T00:42:36;5.43;;;4.27;;
53299;SDS011;39187;48.476;8.310;2023-04-27T00:45:01;9.03;;;3.43;;
53299;SDS011;39187;48.476;8.310;2023-04-27T00:47:29;3.63;;;3.33;;
53299;SDS011;39187;48.476;8.310;2023-04-27T00:49:55;4.00;;;3.70;;
53299;SDS011;39187;48.476;8.310;2023-04-27T00:52:20;4.70;;;4.30;;
53299;SDS011;39187;48.476;8.310;2023-04-27T00:54:47;4.50;;;4.20;;
53299;SDS011;39187;48.476;8.310;2023-04-27T00:57:14;4.70;;;4.40;;
53299;SDS011;39187;48.476;8.310;2023-04-27T00:59:40;4.07;;;3.87;;
53299;SDS011;39187;48.476;8.310;2023-04-27T01:02:05;4.03;;;3.73;;
53299;SDS011;39187;48.476;8.310;2023-04-27T01:04:31;5.23;;;3.80;;
53299;SDS011;39187;48.476;8.310;2023-04-27T01:06:57;4.40;;;4.13;;
53299;SDS011;39187;48.476;8.310;2023-04-27T01:09:23;4.30;;;4.10;;
53299;SDS011;39187;48.476;8.310;2023-04-27T01:11:48;4.03;;;3.63;;
53299;SDS011;39187;48.476;8.310;2023-04-27T01:14:14;7.63;;;3.53;;
53299;SDS011;39187;48.476;8.310;2023-04-27T01:16:41;5.40;;;4.77;;
53299;SDS011;39187;48.476;8.310;2023-04-27T01:19:07;6.90;;;4.17;;
53299;SDS011;39187;48.476;8.310;2023-04-27T01:21:33;7.93;;;4.20;;
53299;SDS011;39187;48.476;8.310;2023-04-27T01:23:58;4.17;;;3.97;;
53299;SDS011;39187;48.476;8.310;2023-04-27T01:26:24;8.53;;;4.90;;
53299;SDS011;39187;48.476;8.310;2023-04-27T01:28:50;5.00;;;4.07;;
53299;SDS011;39187;48.476;8.310;2023-04-27T01:31:15;4.50;;;4.30;;
53299;SDS011;39187;48.476;8.310;2023-04-27T01:33:41;3.70;;;3.47;;
53299;SDS011;39187;48.476;8.310;2023-04-27T01:36:07;4.50;;;4.30;;
53299;SDS011;39187;48.476;8.310;2023-04-27T01:38:33;5.23;;;4.73;;
53299;SDS011;39187;48.476;8.310;2023-04-27T01:40:59;4.63;;;4.27;;
53299;SDS011;39187;48.476;8.310;2023-04-27T01:43:28;5.60;;;4.33;;
53299;SDS011;39187;48.476;8.310;2023-04-27T01:45:55;5.40;;;4.90;;
53299;SDS011;39187;48.476;8.310;2023-04-27T01:48:21;4.50;;;4.20;;
53299;SDS011;39187;48.476;8.310;2023-04-27T01:50:47;4.17;;;3.77;;
53299;SDS011;39187;48.476;8.310;2023-04-27T01:53:12;4.90;;;4.60;;
53299;SDS011;39187;48.476;8.310;2023-04-27T01:55:38;5.57;;;5.03;;
53299;SDS011;39187;48.476;8.310;2023-04-27T01:58:03;5.07;;;4.67;;
53299;SDS011;39187;48.476;8.310;2023-04-27T02:00:29;5.00;;;4.70;;
53299;SDS011;39187;48.476;8.310;2023-04-27T02:02:55;5.63;;;4.20;;
53299;SDS011;39187;48.476;8.310;2023-04-27T02:05:21;4.47;;;4.17;;
53299;SDS011;39187;48.476;8.310;2023-04-27T02:07:48;4.60;;;4.20;;
53299;SDS011;39187;48.476;8.310;2023-04-27T02:10:14;5.00;;;3.90;;
53299;SDS011;39187;48.476;8.310;2023-04-27T02:12:40;4.67;;;3.80;;
53299;SDS011;39187;48.476;8.310;2023-04-27T02:15:05;5.70;;;5.30;;
53299;SDS011;39187;48.476;8.310;2023-04-27T02:17:35;4.23;;;3.90;;
53299;SDS011;39187;48.476;8.310;2023-04-27T02:20:02;8.07;;;4.30;;
53299;SDS011;39187;48.476;8.310;2023-04-27T02:22:30;6.17;;;4.83;;
53299;SDS011;39187;48.476;8.310;2023-04-27T02:24:56;4.73;;;4.00;;
53299;SDS011;39187;48.476;8.310;2023-04-27T02:27:21;5.70;;;5.13;;
53299;SDS011;39187;48.476;8.310;2023-04-27T02:29:47;6.60;;;6.10;;
53299;SDS011;39187;48.476;8.310;2023-04-27T02:32:12;7.53;;;4.40;;
53299;SDS011;39187;48.476;8.310;2023-04-27T02:34:38;4.37;;;3.60;;
53299;SDS011;39187;48.476;8.310;2023-04-27T02:37:03;3.83;;;3.63;;
53299;SDS011;39187;48.476;8.310;2023-04-27T02:39:29;6.13;;;3.60;;
53299;SDS011;39187;48.476;8.310;2023-04-27T02:41:54;4.70;;;4.30;;
53299;SDS011;39187;48.476;8.310;2023-04-27T02:44:20;6.33;;;4.90;;
53299;SDS011;39187;48.476;8.310;2023-04-27T02:46:45;6.00;;;3.90;;
53299;SDS011;39187;48.476;8.310;2023-04-27T02:49:10;5.73;;;5.23;;
53299;SDS011;39187;48.476;8.310;2023-04-27T02:51:36;5.87;;;4.80;;
53299;SDS011;39187;48.476;8.310;2023-04-27T02:54:01;4.10;;;3.80;;
53299;SDS011;39187;48.476;8.310;2023-04-27T02:56:27;4.70;;;4.30;;
53299;SDS011;39187;48.476;8.310;2023-04-27T02:58:53;4.73;;;3.60;;
53299;SDS011;39187;48.476;8.310;2023-04-27T03:01:18;4.07;;;3.77;;
53299;SDS011;39187;48.476;8.310;2023-04-27T03:03:44;4.27;;;4.07;;
53299;SDS011;39187;48.476;8.310;2023-04-27T03:06:11;5.30;;;3.97;;
53299;SDS011;39187;48.476;8.310;2023-04-27T03:08:37;3.53;;;3.33;;
53299;SDS011;39187;48.476;8.310;2023-04-27T03:11:02;3.67;;;3.47;;
53299;SDS011;39187;48.476;8.310;2023-04-27T03:13:28;3.30;;;3.20;;
53299;SDS011;39187;48.476;8.310;2023-04-27T03:15:53;4.97;;;4.00;;
53299;SDS011;39187;48.476;8.310;2023-04-27T03:18:19;3.90;;;3.60;;
53299;SDS011;39187;48.476;8.310;2023-04-27T03:20:45;5.40;;;3.60;;
53299;SDS011;39187;48.476;8.310;2023-04-27T03:23:10;5.27;;;4.03;;
53299;SDS011;39187;48.476;8.310;2023-04-27T03:25:36;7.27;;;4.20;;
53299;SDS011;39187;48.476;8.310;2023-04-27T03:28:02;4.60;;;4.30;;
53299;SDS011;39187;48.476;8.310;2023-04-27T03:30:27;4.77;;;4.47;;
53299;SDS011;39187;48.476;8.310;2023-04-27T03:32:53;4.33;;;4.10;;
53299;SDS011;39187;48.476;8.310;2023-04-27T03:35:18;3.73;;;3.53;;
53299;SDS011;39187;48.476;8.310;2023-04-27T03:37:44;4.90;;;4.50;;
53299;SDS011;39187;48.476;8.310;2023-04-27T03:40:10;7.53;;;5.10;;
53299;SDS011;39187;48.476;8.310;2023-04-27T03:42:36;4.47;;;4.27;;
53299;SDS011;39187;48.476;8.310;2023-04-27T03:45:02;8.33;;;4.53;;
53299;SDS011;39187;48.476;8.310;2023-04-27T03:47:29;4.77;;;4.43;;
53299;SDS011;39187;48.476;8.310;2023-04-27T03:49:54;5.30;;;4.03;;
53299;SDS011;39187;48.476;8.310;2023-04-27T03:52:20;4.20;;;3.90;;
53299;SDS011;39187;48.476;8.310;2023-04-27T03:54:46;7.27;;;3.97;;
53299;SDS011;39187;48.476;8.310;2023-04-27T03:57:11;5.00;;;4.17;;
53299;SDS011;39187;48.476;8.310;2023-04-27T03:59:37;3.97;;;3.67;;
53299;SDS011;39187;48.476;8.310;2023-04-27T04:02:02;8.00;;;3.73;;
53299;SDS011;39187;48.476;8.310;2023-04-27T04:04:29;3.30;;;3.20;;
53299;SDS011;39187;48.476;8.310;2023-04-27T04:06:55;9.83;;;5.20;;
53299;SDS011;39187;48.476;8.310;2023-04-27T04:09:21;4.23;;;3.93;;
53299;SDS011;39187;48.476;8.310;2023-04-27T04:11:46;4.17;;;3.97;;
53299;SDS011;39187;48.476;8.310;2023-04-27T04:14:12;4.20;;;3.90;;
53299;SDS011;39187;48.476;8.310;2023-04-27T04:16:37;4.53;;;4.23;;
53299;SDS011;39187;48.476;8.310;2023-04-27T04:19:03;4.30;;;4.10;;
53299;SDS011;39187;48.476;8.310;2023-04-27T04:21:28;6.37;;;4.90;;
53299;SDS011;39187;48.476;8.310;2023-04-27T04:23:55;6.00;;;5.60;;
53299;SDS011;39187;48.476;8.310;2023-04-27T04:26:21;5.57;;;5.17;;
53299;SDS011;39187;48.476;8.310;2023-04-27T04:28:47;4.77;;;3.87;;
53299;SDS011;39187;48.476;8.310;2023-04-27T04:31:13;4.23;;;3.67;;
53299;SDS011;39187;48.476;8.310;2023-04-27T04:33:41;4.00;;;3.70;;
53299;SDS011;39187;48.476;8.310;2023-04-27T04:36:07;5.40;;;4.43;;
53299;SDS011;39187;48.476;8.310;2023-04-27T04:38:32;4.37;;;3.53;;
53299;SDS011;39187;48.476;8.310;2023-04-27T04:40:58;5.73;;;4.50;;
53299;SDS011;39187;48.476;8.310;2023-04-27T04:43:23;4.20;;;3.90;;
53299;SDS011;39187;48.476;8.310;2023-04-27T04:45:49;10.67;;;4.57;;
53299;SDS011;39187;48.476;8.310;2023-04-27T04:48:14;4.33;;;4.03;;
53299;SDS011;39187;48.476;8.310;2023-04-27T04:50:40;4.90;;;4.60;;
53299;SDS011;39187;48.476;8.310;2023-04-27T04:53:06;5.77;;;5.33;;
53299;SDS011;39187;48.476;8.310;2023-04-27T04:55:32;5.17;;;4.77;;
53299;SDS011;39187;48.476;8.310;2023-04-27T04:57:57;5.70;;;5.40;;
53299;SDS011;39187;48.476;8.310;2023-04-27T05:00:23;5.00;;;4.70;;
53299;SDS011;39187;48.476;8.310;2023-04-27T05:02:48;6.50;;;5.03;;
53299;SDS011;39187;48.476;8.310;2023-04-27T05:05:14;4.80;;;4.47;;
53299;SDS011;39187;48.476;8.310;2023-04-27T05:07:40;4.50;;;4.30;;
53299;SDS011;39187;48.476;8.310;2023-04-27T05:10:05;10.40;;;3.90;;
53299;SDS011;39187;48.476;8.310;2023-04-27T05:12:31;5.03;;;4.70;;
53299;SDS011;39187;48.476;8.310;2023-04-27T05:14:57;4.70;;;4.37;;
53299;SDS011;39187;48.476;8.310;2023-04-27T05:17:22;6.80;;;4.13;;
53299;SDS011;39187;48.476;8.310;2023-04-27T05:19:48;5.93;;;4.63;;
53299;SDS011;39187;48.476;8.310;2023-04-27T05:22:13;4.10;;;3.90;;
53299;SDS011;39187;48.476;8.310;2023-04-27T05:24:39;5.30;;;3.83;;
53299;SDS011;39187;48.476;8.310;2023-04-27T05:27:04;4.47;;;4.03;;
53299;SDS011;39187;48.476;8.310;2023-04-27T05:29:30;4.50;;;4.27;;
53299;SDS011;39187;48.476;8.310;2023-04-27T05:31:56;4.63;;;4.43;;
53299;SDS011;39187;48.476;8.310;2023-04-27T05:34:22;4.57;;;4.27;;
53299;SDS011;39187;48.476;8.310;2023-04-27T05:36:47;5.10;;;4.80;;
53299;SDS011;39187;48.476;8.310;2023-04-27T05:39:13;5.07;;;4.70;;
53299;SDS011;39187;48.476;8.310;2023-04-27T05:41:39;4.60;;;4.20;;
53299;SDS011;39187;48.476;8.310;2023-04-27T05:44:04;7.13;;;4.17;;
53299;SDS011;39187;48.476;8.310;2023-04-27T05:46:31;5.30;;;5.10;;
53299;SDS011;39187;48.476;8.310;2023-04-27T05:48:57;5.07;;;4.13;;
53299;SDS011;39187;48.476;8.310;2023-04-27T05:51:22;5.20;;;4.90;;
53299;SDS011;39187;48.476;8.310;2023-04-27T05:53:48;9.10;;;5.80;;
53299;SDS011;39187;48.476;8.310;2023-04-27T05:56:14;4.77;;;4.57;;
53299;SDS011;39187;48.476;8.310;2023-04-27T05:58:40;6.13;;;5.63;;
53299;SDS011;39187;48.476;8.310;2023-04-27T06:01:06;7.67;;;5.53;;
53299;SDS011;39187;48.476;8.310;2023-04-27T06:03:31;7.70;;;6.93;;
53299;SDS011;39187;48.476;8.310;2023-04-27T06:05:57;4.43;;;4.23;;
53299;SDS011;39187;48.476;8.310;2023-04-27T06:08:24;5.17;;;4.83;;
53299;SDS011;39187;48.476;8.310;2023-04-27T06:10:51;4.93;;;4.63;;
53299;SDS011;39187;48.476;8.310;2023-04-27T06:13:17;11.10;;;5.37;;
53299;SDS011;39187;48.476;8.310;2023-04-27T06:15:43;5.83;;;5.20;;
53299;SDS011;39187;48.476;8.310;2023-04-27T06:18:08;5.63;;;5.23;;
53299;SDS011;39187;48.476;8.310;2023-04-27T06:20:34;4.93;;;4.73;;
53299;SDS011;39187;48.476;8.310;2023-04-27T06:23:00;5.30;;;5.00;;
53299;SDS011;39187;48.476;8.310;2023-04-27T06:25:26;4.83;;;4.27;;
53299;SDS011;39187;48.476;8.310;2023-04-27T06:27:56;5.83;;;5.23;;
53299;SDS011;39187;48.476;8.310;2023-04-27T06:30:22;10.33;;;5.40;;
53299;SDS011;39187;48.476;8.310;2023-04-27T06:32:48;10.23;;;5.50;;
53299;SDS011;39187;48.476;8.310;2023-04-27T06:35:16;5.83;;;5.00;;
53299;SDS011;39187;48.476;8.310;2023-04-27T06:37:42;7.30;;;6.00;;
53299;SDS011;39187;48.476;8.310;2023-04-27T06:40:09;4.73;;;4.40;;
53299;SDS011;39187;48.476;8.310;2023-04-27T06:42:35;5.30;;;5.00;;
53299;SDS011;39187;48.476;8.310;2023-04-27T06:45:01;7.20;;;5.33;;
53299;SDS011;39187;48.476;8.310;2023-04-27T06:47:28;4.90;;;4.70;;
53299;SDS011;39187;48.476;8.310;2023-04-27T06:49:54;5.27;;;4.87;;
53299;SDS011;39187;48.476;8.310;2023-04-27T06:52:20;6.00;;;5.70;;
53299;SDS011;39187;48.476;8.310;2023-04-27T06:54:46;5.50;;;5.30;;
53299;SDS011;39187;48.476;8.310;2023-04-27T06:57:11;5.30;;;4.90;;
53299;SDS011;39187;48.476;8.310;2023-04-27T06:59:37;5.87;;;5.33;;
53299;SDS011;39187;48.476;8.310;2023-04-27T07:02:02;5.90;;;5.40;;
53299;SDS011;39187;48.476;8.310;2023-04-27T07:04:28;6.33;;;5.93;;
53299;SDS011;39187;48.476;8.310;2023-04-27T07:06:54;5.10;;;4.80;;
53299;SDS011;39187;48.476;8.310;2023-04-27T07:09:20;6.33;;;4.33;;
53299;SDS011;39187;48.476;8.310;2023-04-27T07:11:45;6.53;;;5.50;;
53299;SDS011;39187;48.476;8.310;2023-04-27T07:14:11;4.87;;;4.47;;
53299;SDS011;39187;48.476;8.310;2023-04-27T07:16:37;6.30;;;5.03;;
53299;SDS011;39187;48.476;8.310;2023-04-27T07:19:03;5.13;;;4.73;;
53299;SDS011;39187;48.476;8.310;2023-04-27T07:21:28;5.30;;;4.20;;
53299;SDS011;39187;48.476;8.310;2023-04-27T07:23:54;4.93;;;4.63;;
53299;SDS011;39187;48.476;8.310;2023-04-27T07:26:19;5.27;;;4.40;;
53299;SDS011;39187;48.476;8.310;2023-04-27T07:28:48;3.83;;;3.63;;
53299;SDS011;39187;48.476;8.310;2023-04-27T07:31:14;4.87;;;4.63;;
53299;SDS011;39187;48.476;8.310;2023-04-27T07:33:40;5.03;;;4.73;;
53299;SDS011;39187;48.476;8.310;2023-04-27T07:36:05;4.27;;;3.97;;
53299;SDS011;39187;48.476;8.310;2023-04-27T07:38:32;5.87;;;5.27;;
53299;SDS011;39187;48.476;8.310;2023-04-27T07:40:57;3.83;;;3.63;;
53299;SDS011;39187;48.476;8.310;2023-04-27T07:43:25;3.87;;;3.57;;
53299;SDS011;39187;48.476;8.310;2023-04-27T07:45:51;3.73;;;3.43;;
53299;SDS011;39187;48.476;8.310;2023-04-27T07:48:18;4.03;;;3.63;;
53299;SDS011;39187;48.476;8.310;2023-04-27T07:50:44;2.83;;;2.63;;
53299;SDS011;39187;48.476;8.310;2023-04-27T07:53:09;3.57;;;3.37;;
53299;SDS011;39187;48.476;8.310;2023-04-27T07:55:35;3.87;;;3.57;;
53299;SDS011;39187;48.476;8.310;2023-04-27T07:58:01;5.03;;;3.17;;
53299;SDS011;39187;48.476;8.310;2023-04-27T08:00:26;3.30;;;3.20;;
53299;SDS011;39187;48.476;8.310;2023-04-27T08:02:52;3.30;;;3.07;;
53299;SDS011;39187;48.476;8.310;2023-04-27T08:05:18;4.70;;;2.90;;
53299;SDS011;39187;48.476;8.310;2023-04-27T08:07:43;3.60;;;3.40;;
53299;SDS011;39187;48.476;8.310;2023-04-27T08:10:09;3.60;;;3.00;;
53299;SDS011;39187;48.476;8.310;2023-04-27T08:12:35;3.40;;;3.20;;
53299;SDS011;39187;48.476;8.310;2023-04-27T08:15:00;4.40;;;4.00;;
53299;SDS011;39187;48.476;8.310;2023-04-27T08:17:26;3.80;;;3.37;;
53299;SDS011;39187;48.476;8.310;2023-04-27T08:19:52;3.87;;;3.50;;
53299;SDS011;39187;48.476;8.310;2023-04-27T08:22:17;6.10;;;3.43;;
53299;SDS011;39187;48.476;8.310;2023-04-27T08:24:43;4.80;;;4.40;;
53299;SDS011;39187;48.476;8.310;2023-04-27T08:27:09;8.30;;;2.97;;
53299;SDS011;39187;48.476;8.310;2023-04-27T08:29:35;3.77;;;3.20;;
53299;SDS011;39187;48.476;8.310;2023-04-27T08:34:38;4.37;;;4.00;;
53299;SDS011;39187;48.476;8.310;2023-04-27T08:37:05;5.80;;;3.70;;
53299;SDS011;39187;48.476;8.310;2023-04-27T08:39:31;3.17;;;3.07;;
53299;SDS011;39187;48.476;8.310;2023-04-27T08:41:56;3.77;;;3.23;;
53299;SDS011;39187;48.476;8.310;2023-04-27T08:44:22;2.90;;;2.70;;
53299;SDS011;39187;48.476;8.310;2023-04-27T08:46:48;2.27;;;2.00;;
53299;SDS011;39187;48.476;8.310;2023-04-27T08:49:15;4.33;;;2.70;;
53299;SDS011;39187;48.476;8.310;2023-04-27T08:51:40;3.80;;;3.60;;
53299;SDS011;39187;48.476;8.310;2023-04-27T08:54:07;3.23;;;2.93;;
53299;SDS011;39187;48.476;8.310;2023-04-27T08:56:32;2.97;;;2.77;;
53299;SDS011;39187;48.476;8.310;2023-04-27T08:58:58;2.50;;;2.30;;
53299;SDS011;39187;48.476;8.310;2023-04-27T09:01:25;5.30;;;2.67;;
53299;SDS011;39187;48.476;8.310;2023-04-27T09:03:54;3.30;;;3.10;;
53299;SDS011;39187;48.476;8.310;2023-04-27T09:08:59;2.73;;;2.53;;
53299;SDS011;39187;48.476;8.310;2023-04-27T09:11:47;2.20;;;2.10;;
53299;SDS011;39187;48.476;8.310;2023-04-27T09:14:14;3.50;;;2.27;;
53299;SDS011;39187;48.476;8.310;2023-04-27T09:16:41;2.13;;;2.03;;
53299;SDS011;39187;48.476;8.310;2023-04-27T09:19:08;2.83;;;2.60;;
53299;SDS011;39187;48.476;8.310;2023-04-27T09:21:33;2.17;;;2.07;;
53299;SDS011;39187;48.476;8.310;2023-04-27T09:24:08;2.20;;;2.10;;
53299;SDS011;39187;48.476;8.310;2023-04-27T09:26:38;2.60;;;2.20;;
53299;SDS011;39187;48.476;8.310;2023-04-27T09:29:04;2.13;;;2.03;;
53299;SDS011;39187;48.476;8.310;2023-04-27T09:31:30;3.77;;;2.93;;
53299;SDS011;39187;48.476;8.310;2023-04-27T09:33:57;2.63;;;2.50;;
53299;SDS011;39187;48.476;8.310;2023-04-27T09:36:22;2.40;;;2.20;;
53299;SDS011;39187;48.476;8.310;2023-04-27T09:38:49;2.60;;;2.40;;
53299;SDS011;39187;48.476;8.310;2023-04-27T09:41:15;2.10;;;1.80;;
53299;SDS011;39187;48.476;8.310;2023-04-27T09:43:45;1.70;;;1.30;;
53299;SDS011;39187;48.476;8.310;2023-04-27T09:46:11;2.00;;;1.90;;
53299;SDS011;39187;48.476;8.310;2023-04-27T09:48:38;3.10;;;1.57;;
53299;SDS011;39187;48.476;8.310;2023-04-27T09:51:05;2.20;;;2.00;;
53299;SDS011;39187;48.476;8.310;2023-04-27T09:56:38;1.77;;;1.27;;
53299;SDS011;39187;48.476;8.310;2023-04-27T10:02:03;1.70;;;1.60;;
53299;SDS011;39187;48.476;8.310;2023-04-27T10:04:42;4.83;;;2.13;;
53299;SDS011;39187;48.476;8.310;2023-04-27T10:07:20;2.13;;;1.37;;
53299;SDS011;39187;48.476;8.310;2023-04-27T10:09:47;2.53;;;1.13;;
53299;SDS011;39187;48.476;8.310;2023-04-27T10:12:22;1.60;;;1.50;;
53299;SDS011;39187;48.476;8.310;2023-04-27T10:14:52;1.40;;;1.30;;
53299;SDS011;39187;48.476;8.310;2023-04-27T10:17:34;1.10;;;1.00;;
53299;SDS011;39187;48.476;8.310;2023-04-27T10:20:01;1.17;;;1.10;;
53299;SDS011;39187;48.476;8.310;2023-04-27T10:22:38;1.60;;;1.00;;
53299;SDS011;39187;48.476;8.310;2023-04-27T10:25:15;1.23;;;1.10;;
53299;SDS011;39187;48.476;8.310;2023-04-27T10:27:53;1.60;;;1.50;;
53299;SDS011;39187;48.476;8.310;2023-04-27T10:30:20;1.10;;;1.00;;
53299;SDS011;39187;48.476;8.310;2023-04-27T10:32:56;1.30;;;1.30;;
53299;SDS011;39187;48.476;8.310;2023-04-27T10:35:33;1.73;;;1.63;;
53299;SDS011;39187;48.476;8.310;2023-04-27T10:40:31;1.60;;;1.50;;
53299;SDS011;39187;48.476;8.310;2023-04-27T10:43:06;1.43;;;1.20;;
53299;SDS011;39187;48.476;8.310;2023-04-27T10:45:33;1.30;;;1.20;;
53299;SDS011;39187;48.476;8.310;2023-04-27T10:47:59;1.87;;;1.43;;
53299;SDS011;39187;48.476;8.310;2023-04-27T10:50:25;1.60;;;1.20;;
53299;SDS011;39187;48.476;8.310;2023-04-27T10:52:51;1.57;;;1.40;;
53299;SDS011;39187;48.476;8.310;2023-04-27T10:55:18;1.23;;;1.23;;
53299;SDS011;39187;48.476;8.310;2023-04-27T10:57:52;1.10;;;1.00;;
53299;SDS011;39187;48.476;8.310;2023-04-27T11:00:34;1.30;;;1.20;;
53299;SDS011;39187;48.476;8.310;2023-04-27T11:03:15;1.00;;;1.00;;
53299;SDS011;39187;48.476;8.310;2023-04-27T11:05:44;2.50;;;1.50;;
53299;SDS011;39187;48.476;8.310;2023-04-27T11:08:14;1.83;;;1.40;;
53299;SDS011;39187;48.476;8.310;2023-04-27T11:10:45;2.63;;;1.20;;
53299;SDS011;39187;48.476;8.310;2023-04-27T11:13:14;2.10;;;1.10;;
53299;SDS011;39187;48.476;8.310;2023-04-27T11:15:45;1.23;;;1.23;;
53299;SDS011;39187;48.476;8.310;2023-04-27T11:18:18;0.90;;;0.90;;
53299;SDS011;39187;48.476;8.310;2023-04-27T11:20:49;1.90;;;1.67;;
53299;SDS011;39187;48.476;8.310;2023-04-27T11:23:26;2.03;;;1.17;;
53299;SDS011;39187;48.476;8.310;2023-04-27T11:25:53;1.27;;;1.17;;
53299;SDS011;39187;48.476;8.310;2023-04-27T11:28:20;1.10;;;1.10;;
53299;SDS011;39187;48.476;8.310;2023-04-27T11:30:46;1.10;;;1.10;;
53299;SDS011;39187;48.476;8.310;2023-04-27T11:33:19;1.30;;;1.20;;
53299;SDS011;39187;48.476;8.310;2023-04-27T11:35:46;1.73;;;1.63;;
53299;SDS011;39187;48.476;8.310;2023-04-27T11:38:15;1.70;;;1.60;;
53299;SDS011;39187;48.476;8.310;2023-04-27T11:40:43;1.60;;;1.50;;
53299;SDS011;39187;48.476;8.310;2023-04-27T11:43:12;1.87;;;1.13;;
53299;SDS011;39187;48.476;8.310;2023-04-27T11:45:41;1.50;;;1.40;;
53299;SDS011;39187;48.476;8.310;2023-04-27T11:48:12;1.20;;;1.10;;
53299;SDS011;39187;48.476;8.310;2023-04-27T11:50:39;1.70;;;1.60;;
53299;SDS011;39187;48.476;8.310;2023-04-27T11:53:05;1.40;;;1.30;;
53299;SDS011;39187;48.476;8.310;2023-04-27T11:55:34;2.00;;;1.90;;
53299;SDS011;39187;48.476;8.310;2023-04-27T11:58:01;8.37;;;5.13;;
53299;SDS011;39187;48.476;8.310;2023-04-27T12:00:26;2.13;;;2.03;;
53299;SDS011;39187;48.476;8.310;2023-04-27T12:02:52;1.50;;;1.40;;
53299;SDS011;39187;48.476;8.310;2023-04-27T12:05:18;2.70;;;1.13;;
53299;SDS011;39187;48.476;8.310;2023-04-27T12:07:44;1.10;;;1.10;;
53299;SDS011;39187;48.476;8.310;2023-04-27T12:10:10;1.57;;;1.47;;
53299;SDS011;39187;48.476;8.310;2023-04-27T12:12:36;1.70;;;1.60;;
53299;SDS011;39187;48.476;8.310;2023-04-27T12:15:02;3.70;;;1.67;;
53299;SDS011;39187;48.476;8.310;2023-04-27T12:17:27;4.90;;;1.50;;
53299;SDS011;39187;48.476;8.310;2023-04-27T12:19:53;2.40;;;2.20;;
53299;SDS011;39187;48.476;8.310;2023-04-27T12:22:19;10.07;;;1.83;;
53299;SDS011;39187;48.476;8.310;2023-04-27T12:24:45;2.37;;;2.20;;
53299;SDS011;39187;48.476;8.310;2023-04-27T12:27:10;1.57;;;1.47;;
53299;SDS011;39187;48.476;8.310;2023-04-27T12:29:36;3.37;;;1.67;;
53299;SDS011;39187;48.476;8.310;2023-04-27T12:32:03;1.80;;;1.70;;
53299;SDS011;39187;48.476;8.310;2023-04-27T12:34:28;1.80;;;1.70;;
53299;SDS011;39187;48.476;8.310;2023-04-27T12:36:54;1.57;;;1.47;;
53299;SDS011;39187;48.476;8.310;2023-04-27T12:39:20;1.40;;;1.30;;
53299;SDS011;39187;48.476;8.310;2023-04-27T12:41:49;1.17;;;1.17;;
53299;SDS011;39187;48.476;8.310;2023-04-27T12:44:15;1.87;;;1.57;;
53299;SDS011;39187;48.476;8.310;2023-04-27T12:46:42;1.50;;;1.40;;
53299;SDS011;39187;48.476;8.310;2023-04-27T12:49:09;1.37;;;1.27;;
53299;SDS011;39187;48.476;8.310;2023-04-27T12:51:35;1.67;;;1.57;;
53299;SDS011;39187;48.476;8.310;2023-04-27T12:54:01;1.60;;;1.50;;
53299;SDS011;39187;48.476;8.310;2023-04-27T12:56:28;1.50;;;1.40;;
53299;SDS011;39187;48.476;8.310;2023-04-27T12:58:54;1.70;;;1.60;;
53299;SDS011;39187;48.476;8.310;2023-04-27T13:01:20;2.27;;;2.10;;
53299;SDS011;39187;48.476;8.310;2023-04-27T13:03:50;2.10;;;2.00;;
53299;SDS011;39187;48.476;8.310;2023-04-27T13:06:17;1.53;;;1.43;;
53299;SDS011;39187;48.476;8.310;2023-04-27T13:08:43;2.23;;;2.13;;
53299;SDS011;39187;48.476;8.310;2023-04-27T13:11:09;2.30;;;2.20;;
53299;SDS011;39187;48.476;8.310;2023-04-27T13:13:35;1.73;;;1.63;;
53299;SDS011;39187;48.476;8.310;2023-04-27T13:16:00;3.87;;;1.50;;
53299;SDS011;39187;48.476;8.310;2023-04-27T13:18:26;2.20;;;1.50;;
53299;SDS011;39187;48.476;8.310;2023-04-27T13:20:54;2.03;;;1.40;;
53299;SDS011;39187;48.476;8.310;2023-04-27T13:23:21;1.60;;;1.50;;
53299;SDS011;39187;48.476;8.310;2023-04-27T13:25:46;1.20;;;1.20;;
53299;SDS011;39187;48.476;8.310;2023-04-27T13:28:12;2.00;;;1.60;;
53299;SDS011;39187;48.476;8.310;2023-04-27T13:30:37;4.30;;;1.37;;
53299;SDS011;39187;48.476;8.310;2023-04-27T13:33:03;1.73;;;1.63;;
53299;SDS011;39187;48.476;8.310;2023-04-27T13:35:28;5.60;;;1.83;;
53299;SDS011;39187;48.476;8.310;2023-04-27T13:37:54;3.00;;;1.50;;
53299;SDS011;39187;48.476;8.310;2023-04-27T13:40:20;1.77;;;1.67;;
53299;SDS011;39187;48.476;8.310;2023-04-27T13:42:46;1.40;;;1.33;;
53299;SDS011;39187;48.476;8.310;2023-04-27T13:45:12;4.70;;;1.37;;
53299;SDS011;39187;48.476;8.310;2023-04-27T13:47:38;2.00;;;1.63;;
53299;SDS011;39187;48.476;8.310;2023-04-27T13:50:10;2.23;;;2.03;;
53299;SDS011;39187;48.476;8.310;2023-04-27T13:52:36;1.30;;;1.30;;
53299;SDS011;39187;48.476;8.310;2023-04-27T13:55:03;1.83;;;1.73;;
53299;SDS011;39187;48.476;8.310;2023-04-27T13:57:29;2.07;;;1.97;;
53299;SDS011;39187;48.476;8.310;2023-04-27T13:59:55;1.53;;;1.43;;
53299;SDS011;39187;48.476;8.310;2023-04-27T14:02:21;1.40;;;1.30;;
53299;SDS011;39187;48.476;8.310;2023-04-27T14:04:48;1.47;;;1.37;;
53299;SDS011;39187;48.476;8.310;2023-04-27T14:07:14;2.13;;;1.60;;
53299;SDS011;39187;48.476;8.310;2023-04-27T14:09:39;2.30;;;1.57;;
53299;SDS011;39187;48.476;8.310;2023-04-27T14:12:06;1.70;;;1.40;;
53299;SDS011;39187;48.476;8.310;2023-04-27T14:14:32;1.33;;;1.33;;
53299;SDS011;39187;48.476;8.310;2023-04-27T14:16:59;1.30;;;1.20;;
53299;SDS011;39187;48.476;8.310;2023-04-27T14:19:25;1.53;;;1.43;;
53299;SDS011;39187;48.476;8.310;2023-04-27T14:21:51;2.10;;;1.27;;
53299;SDS011;39187;48.476;8.310;2023-04-27T14:24:17;1.53;;;1.43;;
53299;SDS011;39187;48.476;8.310;2023-04-27T14:26:42;1.20;;;1.10;;
53299;SDS011;39187;48.476;8.310;2023-04-27T14:29:10;1.20;;;1.20;;
53299;SDS011;39187;48.476;8.310;2023-04-27T14:31:36;1.50;;;1.40;;
53299;SDS011;39187;48.476;8.310;2023-04-27T14:34:02;1.30;;;1.20;;
53299;SDS011;39187;48.476;8.310;2023-04-27T14:36:28;1.30;;;1.30;;
53299;SDS011;39187;48.476;8.310;2023-04-27T14:38:53;5.97;;;1.23;;
53299;SDS011;39187;48.476;8.310;2023-04-27T14:41:19;1.23;;;1.13;;
53299;SDS011;39187;48.476;8.310;2023-04-27T14:43:45;1.30;;;1.30;;
53299;SDS011;39187;48.476;8.310;2023-04-27T14:46:12;1.37;;;1.33;;
53299;SDS011;39187;48.476;8.310;2023-04-27T14:48:38;1.10;;;1.10;;
53299;SDS011;39187;48.476;8.310;2023-04-27T14:51:03;1.33;;;1.30;;
53299;SDS011;39187;48.476;8.310;2023-04-27T14:53:30;1.17;;;1.17;;
53299;SDS011;39187;48.476;8.310;2023-04-27T14:55:56;1.30;;;1.20;;
53299;SDS011;39187;48.476;8.310;2023-04-27T14:58:21;1.27;;;1.27;;